Time;durP1;ratioP1;P1;durP2;ratioP2;P2;SDS_P1;SDS_P2;PMS_P1;PMS_P2;Temp;Humidity;BMP_temperature;BMP_pressure;BME280_temperature;BME280_humidity;BME280_pressure;Samples;Min_cycle;Max_cycle;Signal;HPM_P1;HPM_P2
2022/05/09 00:00:06;;;;;;;9.38;3.53;;;;;;;;;;5059111;28;20040;-80
2022/05/09 00:02:32;;;;;;;6.72;3.53;;;;;;;;;;5056069;28;20017;-78
2022/05/09 00:04:58;;;;;;;5.57;3.53;;;;;;;;;;5049387;28;20029;-78
2022/05/09 00:07:24;;;;;;;8.35;3.65;;;;;;;;;;5048604;28;20021;-79
2022/05/09 00:09:50;;;;;;;7.00;3.72;;;;;;;;;;5050441;28;20037;-78
2022/05/09 00:12:15;;;;;;;10.57;4.57;;;;;;;;;;5054926;28;20036;-78
2022/05/09 00:14:42;;;;;;;5.60;3.25;;;;;;;;;;5048956;28;20087;-78
2022/05/09 00:17:08;;;;;;;9.30;4.15;;;;;;;;;;5043387;28;20029;-79
2022/05/09 00:19:34;;;;;;;10.23;5.20;;;;;;;;;;5043172;28;20021;-79
2022/05/09 00:22:00;;;;;;;10.50;5.15;;;;;;;;;;5050982;28;20049;-79
2022/05/09 00:24:26;;;;;;;9.18;5.13;;;;;;;;;;5054759;28;20044;-78
2022/05/09 00:26:52;;;;;;;6.97;4.25;;;;;;;;;;5049331;28;20025;-79
2022/05/09 00:29:20;;;;;;;9.25;5.00;;;11.70;99.90;;;;;;5053469;28;20043;-79
2022/05/09 00:31:47;;;;;;;6.70;3.50;;;;;;;;;;5052465;28;20036;-79
2022/05/09 00:34:17;;;;;;;6.22;3.55;;;;;;;;;;5052698;28;20092;-79
2022/05/09 00:36:43;;;;;;;5.90;3.17;;;10.50;99.90;;;;;;5047678;28;20085;-80
2022/05/09 00:39:09;;;;;;;7.18;3.88;;;;;;;;;;5048297;28;20550;-79
2022/05/09 00:41:37;;;;;;;7.93;5.30;;;;;;;;;;5052913;28;20021;-79
2022/05/09 00:44:06;;;;;;;6.97;3.92;;;;;;;;;;5055222;28;20037;-79
2022/05/09 00:46:33;;;;;;;8.23;4.63;;;;;;;;;;5045697;28;20041;-79
2022/05/09 00:49:02;;;;;;;6.57;4.40;;;;;;;;;;5047975;28;20036;-78
2022/05/09 00:51:29;;;;;;;7.65;4.38;;;;;;;;;;5057662;28;20028;-80
2022/05/09 00:53:56;;;;;;;11.95;3.83;;;;;;;;;;5050755;28;20024;-78
2022/05/09 00:56:25;;;;;;;5.95;3.83;;;;;;;;;;5046949;28;20025;-79
2022/05/09 00:58:57;;;;;;;9.23;4.15;;;;;;;;;;5048318;28;20027;-79
2022/05/09 01:01:22;;;;;;;8.25;4.30;;;10.50;99.90;;;;;;5049369;28;20034;-80
2022/05/09 01:03:50;;;;;;;7.28;3.97;;;;;;;;;;5054298;28;20102;-79
2022/05/09 01:06:16;;;;;;;8.05;4.22;;;;;;;;;;5053547;28;20635;-78
2022/05/09 01:08:42;;;;;;;17.63;4.25;;;;;;;;;;5048963;28;20658;-79
2022/05/09 01:11:10;;;;;;;7.10;4.22;;;;;;;;;;5049900;28;20063;-79
2022/05/09 01:13:39;;;;;;;8.75;4.70;;;;;;;;;;5053402;28;20032;-79
2022/05/09 01:16:06;;;;;;;8.57;4.47;;;;;;;;;;5048287;28;20029;-80
2022/05/09 01:18:33;;;;;;;7.97;4.05;;;;;;;;;;5056535;28;20613;-79
2022/05/09 01:20:59;;;;;;;7.95;4.72;;;;;;;;;;5052279;28;20405;-78
2022/05/09 01:23:25;;;;;;;10.63;4.70;;;;;;;;;;5055014;28;20028;-79
2022/05/09 01:25:52;;;;;;;9.40;4.10;;;;;;;;;;5051912;28;20961;-79
2022/05/09 01:28:18;;;;;;;7.80;3.72;;;;;;;;;;5049833;28;20275;-79
2022/05/09 01:30:52;;;;;;;7.78;4.70;;;;;;;;;;5053798;28;20027;-79
2022/05/09 01:33:31;;;;;;;9.00;4.68;;;;;;;;;;5048709;28;20607;-78
2022/05/09 01:36:02;;;;;;;8.95;4.30;;;;;;;;;;5059569;28;20390;-79
2022/05/09 01:38:36;;;;;;;7.00;4.18;;;10.50;99.90;;;;;;5047309;28;20036;-79
2022/05/09 01:41:02;;;;;;;8.35;4.47;;;;;;;;;;5053873;28;20094;-79
2022/05/09 01:43:29;;;;;;;7.05;4.45;;;;;;;;;;5052752;28;20033;-79
2022/05/09 01:45:55;;;;;;;9.40;5.28;;;;;;;;;;5041844;28;20124;-78
2022/05/09 01:51:06;;;;;;;5.30;2.60;;;;;;;;;;5051153;28;20114;-79
2022/05/09 01:53:32;;;;;;;7.47;3.78;;;;;;;;;;5049934;28;20029;-79
2022/05/09 01:55:58;;;;;;;6.93;3.17;;;;;;;;;;5048653;28;20043;-78
2022/05/09 01:58:24;;;;;;;6.85;4.18;;;;;;;;;;5048397;28;20071;-78
2022/05/09 02:00:50;;;;;;;7.63;3.97;;;;;;;;;;5050897;28;20028;-79
2022/05/09 02:03:19;;;;;;;10.45;4.80;;;;;;;;;;5048282;28;20027;-79
2022/05/09 02:05:45;;;;;;;7.38;3.88;;;;;;;;;;5048305;28;20045;-78
2022/05/09 02:08:11;;;;;;;8.25;4.55;;;;;;;;;;5044843;28;20024;-78
2022/05/09 02:10:37;;;;;;;7.43;4.10;;;9.70;99.90;;;;;;5054206;28;20021;-78
2022/05/09 02:13:03;;;;;;;6.80;4.43;;;;;;;;;;5051727;28;20043;-79
2022/05/09 02:15:31;;;;;;;8.52;4.75;;;;;;;;;;5049933;28;20040;-79
2022/05/09 02:17:57;;;;;;;8.07;4.13;;;;;;;;;;5045078;28;20033;-79
2022/05/09 02:20:23;;;;;;;7.75;3.97;;;;;;;;;;5055718;28;20017;-79
2022/05/09 02:22:49;;;;;;;6.90;3.53;;;;;;;;;;5046660;28;20033;-79
2022/05/09 02:25:29;;;;;;;7.93;4.07;;;;;;;;;;5050336;28;20033;-80
2022/05/09 02:28:02;;;;;;;6.20;4.10;;;;;;;;;;5039487;28;20998;-79
2022/05/09 02:30:29;;;;;;;7.43;4.03;;;;;;;;;;5051376;28;20070;-79
2022/05/09 02:32:55;;;;;;;8.63;4.45;;;9.90;99.90;;;;;;5046796;28;20044;-79
2022/05/09 02:35:22;;;;;;;9.88;3.67;;;;;;;;;;5052586;28;20145;-79
2022/05/09 02:37:49;;;;;;;7.10;3.30;;;;;;;;;;5042396;28;20129;-79
2022/05/09 02:40:15;;;;;;;7.28;3.95;;;;;;;;;;5046931;28;20128;-79
2022/05/09 02:42:41;;;;;;;5.78;3.90;;;8.90;99.90;;;;;;5048988;28;20539;-79
2022/05/09 02:45:07;;;;;;;7.07;4.68;;;9.10;99.90;;;;;;5048320;28;20037;-79
2022/05/09 02:47:33;;;;;;;8.55;5.50;;;;;;;;;;5042332;28;20103;-79
2022/05/09 02:49:59;;;;;;;7.55;5.10;;;8.90;99.90;;;;;;5054413;28;20409;-79
2022/05/09 02:52:25;;;;;;;9.45;4.78;;;;;;;;;;5040596;28;20032;-78
2022/05/09 02:54:51;;;;;;;9.35;4.88;;;;;;;;;;5043306;28;20021;-78
2022/05/09 02:57:17;;;;;;;8.98;4.57;;;;;;;;;;5047687;28;20032;-80
2022/05/09 02:59:44;;;;;;;9.65;4.82;;;;;;;;;;5045760;28;20024;-79
2022/05/09 03:02:10;;;;;;;8.95;5.63;;;;;;;;;;5050761;28;20029;-78
2022/05/09 03:04:39;;;;;;;12.07;7.45;;;;;;;;;;5046017;28;20047;-78
2022/05/09 03:07:05;;;;;;;25.38;12.43;;;;;;;;;;5049194;28;20041;-78
2022/05/09 03:09:32;;;;;;;16.42;9.05;;;;;;;;;;5050084;28;20029;-78
2022/05/09 03:11:58;;;;;;;10.98;5.97;;;;;;;;;;5047349;28;20033;-78
2022/05/09 03:14:23;;;;;;;8.43;4.90;;;;;;;;;;5049623;28;20025;-81
2022/05/09 03:16:49;;;;;;;9.15;5.97;;;;;;;;;;5042069;28;20610;-79
2022/05/09 03:19:16;;;;;;;13.63;4.85;;;;;;;;;;5045941;28;20373;-79
2022/05/09 03:21:42;;;;;;;10.40;4.95;;;;;;;;;;5048935;28;20041;-79
2022/05/09 03:24:08;;;;;;;9.68;5.05;;;;;;;;;;5049207;28;20032;-80
2022/05/09 03:26:35;;;;;;;8.63;4.88;;;;;;;;;;5048387;28;20508;-79
2022/05/09 03:29:01;;;;;;;8.93;5.45;;;;;;;;;;5045186;28;20017;-79
2022/05/09 03:31:27;;;;;;;15.63;7.35;;;;;;;;;;5046649;28;20059;-79
2022/05/09 03:33:53;;;;;;;8.48;5.35;;;;;;;;;;5048318;28;20028;-79
2022/05/09 03:36:19;;;;;;;11.00;5.15;;;;;;;;;;5053211;28;20021;-78
2022/05/09 03:38:45;;;;;;;13.25;5.10;;;;;;;;;;5046354;28;20565;-79
2022/05/09 03:41:11;;;;;;;11.10;5.60;;;;;;;;;;5053803;28;20021;-79
2022/05/09 03:43:37;;;;;;;10.45;4.53;;;;;;;;;;5062943;28;20067;-79
2022/05/09 03:46:03;;;;;;;9.82;4.85;;;;;;;;;;5049474;28;20049;-79
2022/05/09 03:48:29;;;;;;;10.07;5.50;;;;;;;;;;5045941;28;20086;-79
2022/05/09 03:50:56;;;;;;;11.45;6.15;;;;;;;;;;5054571;28;20029;-78
2022/05/09 03:53:23;;;;;;;10.73;5.40;;;;;;;;;;5052316;28;20032;-78
2022/05/09 03:55:49;;;;;;;6.32;3.60;;;;;;;;;;5060184;28;20029;-78
2022/05/09 03:58:15;;;;;;;7.53;3.92;;;;;;;;;;5048251;28;20040;-78
2022/05/09 04:00:43;;;;;;;9.00;4.43;;;;;;;;;;5051873;28;20029;-79
2022/05/09 04:03:09;;;;;;;8.35;4.75;;;;;;;;;;5052634;28;20029;-78
2022/05/09 04:05:36;;;;;;;9.27;5.15;;;;;;;;;;5053874;28;20037;-78
2022/05/09 04:08:04;;;;;;;7.00;4.38;;;;;;;;;;5045015;28;20036;-79
2022/05/09 04:10:31;;;;;;;9.80;4.65;;;;;;;;;;5046930;28;20024;-78
2022/05/09 04:12:58;;;;;;;7.88;3.03;;;;;;;;;;5045203;28;20025;-80
2022/05/09 04:18:09;;;;;;;5.63;3.50;;;;;;;;;;5036814;28;20174;-79
2022/05/09 04:20:36;;;;;;;7.13;3.60;;;;;;;;;;5052694;28;20037;-78
2022/05/09 04:23:02;;;;;;;5.45;3.55;;;;;;;;;;5043855;28;20037;-80
2022/05/09 04:25:31;;;;;;;4.95;2.85;;;;;;;;;;5055559;28;20048;-78
2022/05/09 04:27:58;;;;;;;8.52;4.50;;;;;;;;;;5042072;28;20029;-79
2022/05/09 04:30:24;;;;;;;9.77;3.40;;;;;;;;;;5039472;28;20091;-80
2022/05/09 04:32:50;;;;;;;7.10;3.15;;;;;;;;;;5039854;28;20112;-81
2022/05/09 04:35:21;;;;;;;6.63;3.40;;;;;;;;;;5046467;28;20072;-79
2022/05/09 04:37:48;;;;;;;6.53;4.07;;;;;;;;;;5043118;28;20022;-78
2022/05/09 04:40:15;;;;;;;7.18;3.63;;;;;;;;;;5037745;28;20029;-78
2022/05/09 04:42:41;;;;;;;6.22;3.63;;;;;;;;;;5045352;28;20479;-77
2022/05/09 04:45:07;;;;;;;6.05;3.53;;;;;;;;;;5045519;28;20056;-78
2022/05/09 04:47:33;;;;;;;5.68;3.45;;;;;;;;;;5044022;28;20092;-78
2022/05/09 04:49:59;;;;;;;6.95;3.78;;;;;;;;;;5046356;28;20076;-79
2022/05/09 04:52:25;;;;;;;11.57;5.85;;;;;;;;;;5041194;28;20092;-78
2022/05/09 04:54:51;;;;;;;10.43;5.47;;;;;;;;;;5053725;28;20029;-79
2022/05/09 04:57:17;;;;;;;8.60;4.82;;;10.50;99.90;;;;;;5048683;28;20768;-78
2022/05/09 04:59:43;;;;;;;5.45;3.42;;;;;;;;;;5049352;28;20074;-77
2022/05/09 05:02:09;;;;;;;7.20;3.63;;;;;;;;;;5043882;28;20421;-78
2022/05/09 05:04:35;;;;;;;8.40;3.90;;;;;;;;;;5042007;28;20118;-79
2022/05/09 05:07:01;;;;;;;8.13;3.53;;;;;;;;;;5041236;28;20037;-78
2022/05/09 05:09:28;;;;;;;5.07;3.20;;;;;;;;;;5035032;28;20377;-78
2022/05/09 05:11:54;;;;;;;6.82;3.45;;;;;;;;;;5053185;28;20021;-78
2022/05/09 05:14:20;;;;;;;7.35;4.05;;;;;;;;;;5042065;28;20040;-78
2022/05/09 05:17:01;;;;;;;7.22;4.22;;;;;;;;;;5045398;28;20033;-78
2022/05/09 05:19:27;;;;;;;;;;;;;;;;;;5048376;28;20343;-78
2022/05/09 05:21:53;;;;;;;;;;;;;;;;;;5045032;28;19916;-78
2022/05/09 05:24:19;;;;;;;;;;;;;;;;;;5049014;28;20303;-79
2022/05/09 05:26:45;;;;;;;;;;;;;;;;;;5043685;28;19909;-78
2022/05/09 05:29:11;;;;;;;;;;;;;;;;;;5054028;28;19913;-78
2022/05/09 05:31:36;;;;;;;;;;;;;;;;;;5052350;28;19977;-78
2022/05/09 05:34:02;;;;;;;;;;;;;;;;;;5053985;28;20014;-78
2022/05/09 05:36:28;;;;;;;;;;;;;;;;;;5048150;28;20370;-77
2022/05/09 05:38:54;;;;;;;;;;;;;;;;;;5053715;28;19920;-79
2022/05/09 05:41:20;;;;;;;;;;;;;;;;;;5047316;28;19915;-79
2022/05/09 05:43:46;;;;;;;;;;;;;;;;;;5050456;28;19912;-78
2022/05/09 05:46:12;;;;;;;10.32;4.03;;;;;;;;;;5047272;28;19921;-78
2022/05/09 05:48:39;;;;;;;8.25;4.53;;;;;;;;;;5053582;28;20028;-78
2022/05/09 05:51:05;;;;;;;11.48;4.60;;;;;;;;;;5046884;28;20020;-79
2022/05/09 05:53:31;;;;;;;9.10;4.82;;;;;;;;;;5049087;28;20031;-79
2022/05/09 05:55:57;;;;;;;8.07;4.57;;;;;;;;;;5051597;28;20028;-78
2022/05/09 05:58:26;;;;;;;7.95;4.28;;;;;;;;;;5051054;28;20024;-78
2022/05/09 06:00:52;;;;;;;7.75;4.07;;;;;;;;;;5052755;28;20025;-78
2022/05/09 06:03:20;;;;;;;9.88;5.05;;;;;;;;;;5042937;28;20096;-78
2022/05/09 06:05:46;;;;;;;8.38;4.28;;;;;;;;;;5048172;28;20045;-79
2022/05/09 06:08:12;;;;;;;;;;;;;;;;;;5049495;28;20029;-78
2022/05/09 06:10:37;;;;;;;;;;;;;;;;;;5049440;28;19916;-78
2022/05/09 06:13:04;;;;;;;;;;;15.40;99.90;;;;;;5050203;28;19908;-79
2022/05/09 06:15:33;;;;;;;;;;;;;;;;;;5050333;28;20000;-78
2022/05/09 06:18:00;;;;;;;;;;;17.40;99.90;;;;;;5043595;28;19916;-78
2022/05/09 06:20:28;;;;;;;7.82;3.28;;;18.20;99.90;;;;;;5047626;28;19924;-79
2022/05/09 06:22:56;;;;;;;4.57;2.83;;;;;;;;;;5050469;28;20025;-78
2022/05/09 06:25:22;;;;;;;5.82;3.08;;;;;;;;;;5051505;28;20136;-79
2022/05/09 06:27:48;;;;;;;4.35;2.17;;;;;;;;;;5046378;28;20570;-78
2022/05/09 06:30:16;;;;;;;4.00;2.47;;;;;;;;;;5053414;28;20036;-78
2022/05/09 06:32:42;;;;;;;6.00;2.05;;;;;;;;;;5049528;28;20032;-78
2022/05/09 06:35:10;;;;;;;5.25;2.30;;;;;;;;;;5046372;28;20477;-80
2022/05/09 06:37:38;;;;;;;2.97;1.70;;;27.80;69.10;;;;;;5046358;28;20037;-78
2022/05/09 06:40:06;;;;;;;3.95;2.05;;;28.40;68.70;;;;;;5056505;28;20056;-79
2022/05/09 06:42:32;;;;;;;4.25;1.67;;;;;;;;;;5047930;28;20033;-78
2022/05/09 06:44:58;;;;;;;5.05;1.70;;;;;;;;;;5050889;28;20398;-78
2022/05/09 06:47:24;;;;;;;3.38;2.00;;;;;;;;;;5042460;28;20048;-78
2022/05/09 06:49:50;;;;;;;5.20;2.65;;;27.40;83.40;;;;;;5048924;28;20445;-78
2022/05/09 06:52:15;;;;;;;3.25;1.90;;;27.50;84.50;;;;;;5050794;28;20040;-78
2022/05/09 06:54:41;;;;;;;3.97;2.10;;;;;;;;;;5052836;28;20021;-78
2022/05/09 06:57:07;;;;;;;5.72;2.63;;;;;;;;;;5047842;28;20048;-78
2022/05/09 06:59:34;;;;;;;6.43;2.20;;;;;;;;;;5051095;28;20025;-79
2022/05/09 07:02:00;;;;;;;3.92;1.67;;;;;;;;;;5045954;28;20025;-79
2022/05/09 07:04:26;;;;;;;4.30;2.13;;;;;;;;;;5046648;28;20037;-78
2022/05/09 07:06:52;;;;;;;5.18;2.17;;;;;;;;;;5047741;28;20043;-79
2022/05/09 07:09:18;;;;;;;3.55;1.80;;;;;;;;;;5044324;28;20129;-80
2022/05/09 07:11:44;;;;;;;3.70;2.25;;;;;;;;;;5047118;28;20038;-79
2022/05/09 07:14:11;;;;;;;5.22;2.35;;;;;;;;;;5052475;28;20056;-79
2022/05/09 07:16:36;;;;;;;;;;;;;;;;;;5052702;28;20064;-78
2022/05/09 07:19:07;;;;;;;8.90;2.70;;;;;;;;;;5060887;28;19912;-78
2022/05/09 07:21:33;;;;;;;5.45;2.85;;;;;;;;;;5058429;28;20033;-79
2022/05/09 07:23:58;;;;;;;;;;;;;;;;;;5051646;28;20084;-79
2022/05/09 07:26:24;;;;;;;;;;;;;;;;;;5056699;28;19960;-78
2022/05/09 07:28:50;;;;;;;;;;;;;;;;;;5048699;28;19908;-79
2022/05/09 07:31:16;;;;;;;;;;;;;;;;;;5048705;28;20340;-78
2022/05/09 07:33:43;;;;;;;;;;;;;;;;;;5049401;28;19909;-79
2022/05/09 07:36:09;;;;;;;;;;;;;;;;;;5058792;28;19912;-79
2022/05/09 07:38:35;;;;;;;;;;;;;;;;;;5056671;28;19909;-79
2022/05/09 07:41:01;;;;;;;;;;;;;;;;;;5051804;28;19985;-78
2022/05/09 07:43:26;;;;;;;;;;;;;;;;;;5051155;28;19913;-79
2022/05/09 07:45:54;;;;;;;;;;;;;;;;;;5051405;28;20029;-78
2022/05/09 07:48:19;;;;;;;;;;;;;;;;;;5047600;28;19909;-79
2022/05/09 07:50:45;;;;;;;;;;;;;;;;;;5055153;28;19954;-78
2022/05/09 07:53:11;;;;;;;;;;;;;;;;;;5047758;28;19968;-78
2022/05/09 07:55:38;;;;;;;;;;;19.20;98.00;;;;;;5055677;28;19970;-78
2022/05/09 07:58:04;;;;;;;;;;;;;;;;;;5048950;28;20101;-78
2022/05/09 08:00:30;;;;;;;;;;;;;;;;;;5051124;28;20372;-78
2022/05/09 08:02:55;;;;;;;;;;;;;;;;;;5050385;28;19913;-79
2022/05/09 08:05:21;;;;;;;;;;;;;;;;;;5052738;28;20400;-78
2022/05/09 08:07:47;;;;;;;;;;;;;;;;;;5056179;28;19915;-78
2022/05/09 08:10:15;;;;;;;;;;;;;;;;;;5053976;28;19954;-78
2022/05/09 08:12:41;;;;;;;;;;;;;;;;;;5048516;28;19964;-79
2022/05/09 08:15:07;;;;;;;;;;;20.60;97.10;;;;;;5055154;28;19960;-78
2022/05/09 08:17:33;;;;;;;;;;;;;;;;;;5052462;28;20295;-78
2022/05/09 08:19:59;;;;;;;;;;;;;;;;;;5050965;28;19912;-78
2022/05/09 08:22:28;;;;;;;;;;;;;;;;;;5050111;28;20335;-79
2022/05/09 08:24:54;;;;;;;;;;;;;;;;;;5052322;28;19913;-78
2022/05/09 08:27:20;;;;;;;;;;;;;;;;;;5051354;28;20000;-80
2022/05/09 08:29:46;;;;;;;;;;;;;;;;;;5055833;28;19921;-78
2022/05/09 08:32:12;;;;;;;5.20;2.58;;;;;;;;;;5058335;28;20011;-79
2022/05/09 08:34:38;;;;;;;;;;;;;;;;;;5054080;28;20041;-78
2022/05/09 08:37:03;;;;;;;;;;;25.90;81.30;;;;;;5051838;28;20132;-79
2022/05/09 08:39:32;;;;;;;;;;;;;;;;;;5055914;28;20257;-78
2022/05/09 08:41:59;;;;;;;;;;;;;;;;;;5052292;28;20007;-79
2022/05/09 08:44:27;;;;;;;5.13;2.63;;;;;;;;;;5053249;28;19917;-79
2022/05/09 08:47:22;;;;;;;3.65;2.08;;;30.10;57.30;;;;;;5042992;28;20041;-78
2022/05/09 08:50:14;;;;;;;4.32;2.38;;;;;;;;;;5055300;28;20025;-79
2022/05/09 08:53:01;;;;;;;16.73;2.60;;;32.80;54.00;;;;;;5038477;28;20041;-79
2022/05/09 08:55:36;;;;;;;5.40;2.10;;;;;;;;;;5049016;28;20033;-80
2022/05/09 08:58:05;;;;;;;2.63;1.55;;;;;;;;;;5050676;28;20104;-78
2022/05/09 09:00:31;;;;;;;3.75;2.00;;;;;;;;;;5056582;28;20481;-78
2022/05/09 09:03:00;;;;;;;2.78;1.65;;;;;;;;;;5051300;28;20391;-80
2022/05/09 09:05:29;;;;;;;3.63;2.10;;;;;;;;;;5058175;28;20047;-78
2022/05/09 09:08:07;;;;;;;2.78;1.67;;;;;;;;;;5047879;28;20037;-78
2022/05/09 09:10:42;;;;;;;3.85;2.15;;;;;;;;;;5055567;28;20087;-80
2022/05/09 09:13:08;;;;;;;3.38;2.45;;;;;;;;;;5047692;28;20116;-78
2022/05/09 09:15:40;;;;;;;7.85;2.33;;;33.60;47.20;;;;;;5053226;28;20111;-79
2022/05/09 09:18:06;;;;;;;4.60;1.80;;;;;;;;;;5053163;28;20503;-79
2022/05/09 09:20:35;;;;;;;4.45;2.15;;;;;;;;;;5056255;28;20352;-78
2022/05/09 09:23:04;;;;;;;5.43;2.40;;;;;;;;;;5047095;28;20029;-79
2022/05/09 09:25:41;;;;;;;5.07;2.63;;;;;;;;;;5048665;28;20129;-78
2022/05/09 09:28:11;;;;;;;3.85;1.92;;;;;;;;;;5050326;28;20092;-78
2022/05/09 09:30:38;;;;;;;5.60;2.50;;;;;;;;;;5049563;28;20514;-78
2022/05/09 09:33:06;;;;;;;5.40;2.40;;;;;;;;;;5041261;28;20068;-78
2022/05/09 09:35:43;;;;;;;4.53;2.28;;;;;;;;;;5046017;28;20029;-78
2022/05/09 09:38:09;;;;;;;;;;;;;;;;;;5050437;28;20432;-78
2022/05/09 09:40:35;;;;;;;;;;;;;;;;;;5055485;28;19908;-78
2022/05/09 09:43:01;;;;;;;;;;;;;;;;;;5050069;28;19911;-78
2022/05/09 09:45:27;;;;;;;;;;;;;;;;;;5051136;28;19920;-78
2022/05/09 09:47:52;;;;;;;;;;;;;;;;;;5047839;28;19913;-78
2022/05/09 09:50:18;;;;;;;;;;;;;;;;;;5051459;28;19916;-78
2022/05/09 09:52:45;;;;;;;;;;;;;;;;;;5049037;28;19948;-78
2022/05/09 09:55:22;;;;;;;4.95;2.28;;;;;;;;;;5045834;28;19956;-78
2022/05/09 09:57:48;;;;;;;5.30;2.60;;;;;;;;;;5047150;28;20043;-77
2022/05/09 10:00:14;;;;;;;5.80;2.20;;;;;;;;;;5049016;28;20025;-78
2022/05/09 10:02:40;;;;;;;9.45;2.33;;;;;;;;;;5048457;28;20128;-78
2022/05/09 10:05:12;;;;;;;6.70;2.35;;;24.40;75.40;;;;;;5052449;28;20033;-79
2022/05/09 10:07:43;;;;;;;3.78;1.90;;;;;;;;;;5050536;28;20033;-78
2022/05/09 10:10:12;;;;;;;4.03;2.50;;;;;;;;;;5051329;28;20041;-78
2022/05/09 10:12:46;;;;;;;4.47;2.38;;;23.70;73.00;;;;;;5048776;28;20228;-78
2022/05/09 10:15:24;;;;;;;3.55;2.28;;;;;;;;;;5051446;28;20026;-78
2022/05/09 10:17:50;;;;;;;12.93;2.22;;;;;;;;;;5041490;28;20029;-78
2022/05/09 10:20:27;;;;;;;4.50;2.33;;;;;;;;;;5056175;28;20653;-79
2022/05/09 10:25:55;;;;;;;8.65;2.03;;;;;;;;;;5047548;28;20047;-78
2022/05/09 10:28:22;;;;;;;6.25;2.33;;;;;;;;;;5051341;28;20102;-78
2022/05/09 10:30:50;;;;;;;5.13;2.22;;;;;;;;;;5049894;28;20032;-79
2022/05/09 10:33:33;;;;;;;6.05;2.20;;;;;;;;;;5045323;28;20033;-78
2022/05/09 10:36:01;;;;;;;3.72;1.70;;;;;;;;;;5049288;28;20033;-78
2022/05/09 10:38:39;;;;;;;3.53;2.10;;;;;;;;;;5053359;28;20033;-77
2022/05/09 10:41:10;;;;;;;4.90;2.45;;;;;;;;;;5049922;28;20044;-78
2022/05/09 10:43:50;;;;;;;5.43;1.98;;;23.80;67.40;;;;;;5043594;28;20458;-78
2022/05/09 10:46:18;;;;;;;4.00;2.15;;;;;;;;;;5048885;28;20045;-78
2022/05/09 10:48:59;;;;;;;4.22;2.13;;;;;;;;;;5046549;28;21604;-78
2022/05/09 10:51:32;;;;;;;5.72;2.28;;;;;;;;;;5051335;28;20029;-79
2022/05/09 10:54:07;;;;;;;3.35;2.17;;;;;;;;;;5059840;28;20031;-78
2022/05/09 10:56:40;;;;;;;4.03;2.20;;;;;;;;;;5050879;28;20029;-78
2022/05/09 10:59:10;;;;;;;2.97;1.88;;;;;;;;;;5048489;28;20477;-79
2022/05/09 11:02:05;;;;;;;2.65;1.80;;;;;;;;;;5050049;28;21071;-79
2022/05/09 11:04:32;;;;;;;2.90;2.05;;;;;;;;;;5037015;28;20087;-79
2022/05/09 11:07:17;;;;;;;3.50;1.75;;;;;;;;;;5053843;28;20040;-79
2022/05/09 11:09:58;;;;;;;5.22;2.40;;;23.90;88.70;;;;;;5054805;28;20033;-79
2022/05/09 11:12:40;;;;;;;2.63;1.75;;;;;;;;;;5050560;28;20384;-78
2022/05/09 11:15:11;;;;;;;10.07;2.03;;;;;;;;;;5051866;28;20389;-79
2022/05/09 11:18:01;;;;;;;3.40;2.28;;;;;;;;;;5048625;28;20502;-79
2022/05/09 11:20:45;;;;;;;2.80;1.80;;;;;;;;;;5045963;28;20770;-80
2022/05/09 11:23:11;;;;;;;5.43;2.17;;;;;;;;;;5047669;28;20280;-79
2022/05/09 11:25:39;;;;;;;2.83;2.00;;;;;;;;;;5049817;28;20033;-80
2022/05/09 11:28:17;;;;;;;4.03;2.20;;;;;;;;;;5053036;28;20029;-79
2022/05/09 11:30:45;;;;;;;2.88;2.13;;;;;;;;;;5039522;28;20033;-81
2022/05/09 11:33:17;;;;;;;3.60;2.55;;;;;;;;;;5055542;28;20121;-80
2022/05/09 11:35:45;;;;;;;5.82;2.58;;;;;;;;;;5050690;28;20376;-81
2022/05/09 11:38:14;;;;;;;5.78;2.05;;;;;;;;;;5040729;28;20509;-80
2022/05/09 11:40:49;;;;;;;2.55;1.70;;;;;;;;;;5049422;28;20135;-80
2022/05/09 11:43:32;;;;;;;5.97;1.52;;;;;;;;;;5044045;28;20147;-80
2022/05/09 11:45:58;;;;;;;6.13;2.95;;;;;;;;;;5047823;28;20102;-81
2022/05/09 11:48:42;;;;;;;4.43;1.88;;;;;;;;;;5040556;28;20048;-79
2022/05/09 11:51:28;;;;;;;5.03;1.90;;;;;;;;;;5039169;28;20512;-78
2022/05/09 11:53:59;;;;;;;4.63;2.78;;;;;;;;;;5044162;28;21143;-80
2022/05/09 11:56:26;;;;;;;2.25;1.38;;;;;;;;;;5047326;28;20040;-80
2022/05/09 11:58:52;;;;;;;2.75;1.55;;;;;;;;;;5048918;28;20025;-79
2022/05/09 12:01:18;;;;;;;;;;;;;;;;;;5037371;28;20025;-79
2022/05/09 12:03:44;;;;;;;;;;;;;;;;;;5047776;28;19966;-79
2022/05/09 12:06:12;;;;;;;;;;;;;;;;;;5043293;28;19924;-79
2022/05/09 12:08:38;;;;;;;;;;;;;;;;;;5032872;28;20253;-81
2022/05/09 12:11:03;;;;;;;;;;;;;;;;;;5045961;28;19916;-79
2022/05/09 12:13:30;;;;;;;;;;;;;;;;;;5043449;28;20035;-79
2022/05/09 12:15:56;;;;;;;;;;;;;;;;;;5031722;28;19912;-79
2022/05/09 12:18:22;;;;;;;;;;;;;;;;;;5050627;28;20578;-79
2022/05/09 12:20:48;;;;;;;;;;;;;;;;;;5045402;28;19917;-78
2022/05/09 12:23:14;;;;;;;;;;;;;;;;;;5038837;28;19919;-78
2022/05/09 12:25:41;;;;;;;;;;;;;;;;;;5052986;28;19916;-79
2022/05/09 12:28:07;;;;;;;;;;;;;;;;;;5042548;28;19916;-78
2022/05/09 12:30:36;;;;;;;;;;;25.30;60.10;;;;;;5045296;28;19908;-78
2022/05/09 12:33:02;;;;;;;;;;;;;;;;;;5051810;28;19912;-79
2022/05/09 12:35:28;;;;;;;;;;;;;;;;;;5049436;28;19920;-78
2022/05/09 12:37:53;;;;;;;;;;;;;;;;;;5047510;28;19948;-78
2022/05/09 12:40:19;;;;;;;;;;;;;;;;;;5052289;28;19909;-77
2022/05/09 12:42:45;;;;;;;;;;;;;;;;;;5047312;28;20525;-78
2022/05/09 12:45:11;;;;;;;;;;;;;;;;;;5053961;28;19939;-79
2022/05/09 12:47:37;;;;;;;;;;;;;;;;;;5051726;28;19919;-79
2022/05/09 12:50:03;;;;;;;;;;;;;;;;;;5052380;28;19916;-79
2022/05/09 12:52:29;;;;;;;;;;;;;;;;;;5054883;28;19984;-78
2022/05/09 12:57:40;;;;;;;;;;;;;;;;;;5044813;28;19983;-78
2022/05/09 13:00:08;;;;;;;;;;;25.50;57.90;;;;;;5050475;28;19917;-77
2022/05/09 13:02:34;;;;;;;;;;;;;;;;;;5046447;28;19920;-78
2022/05/09 13:05:00;;;;;;;;;;;;;;;;;;5053073;28;19912;-79
2022/05/09 13:07:28;;;;;;;;;;;;;;;;;;5056729;28;20392;-78
2022/05/09 13:09:54;;;;;;;;;;;;;;;;;;5055987;28;19990;-78
2022/05/09 13:12:20;;;;;;;;;;;;;;;;;;5053942;28;20299;-79
2022/05/09 13:14:46;;;;;;;;;;;;;;;;;;5054767;28;19915;-79
2022/05/09 13:17:11;;;;;;;;;;;;;;;;;;5058374;28;19917;-78
2022/05/09 13:19:37;;;;;;;;;;;;;;;;;;5057709;28;19909;-78
2022/05/09 13:22:04;;;;;;;;;;;25.40;61.80;;;;;;5054816;28;19935;-78
2022/05/09 13:24:31;;;;;;;;;;;25.30;64.20;;;;;;5041952;28;19909;-79
2022/05/09 13:26:57;;;;;;;;;;;;;;;;;;5048519;28;20877;-77
2022/05/09 13:29:23;;;;;;;;;;;;;;;;;;5053042;28;19963;-78
2022/05/09 13:31:48;;;;;;;;;;;;;;;;;;5046600;28;19912;-78
2022/05/09 13:34:14;;;;;;;;;;;;;;;;;;5052405;28;19959;-79
2022/05/09 13:36:40;;;;;;;;;;;;;;;;;;5041905;28;19996;-79
2022/05/09 13:39:07;;;;;;;;;;;;;;;;;;5054370;28;19917;-79
2022/05/09 13:41:33;;;;;;;;;;;;;;;;;;5054185;28;19913;-80
2022/05/09 13:44:01;;;;;;;;;;;;;;;;;;5053621;28;20397;-80
2022/05/09 13:46:26;;;;;;;;;;;;;;;;;;5047466;28;20026;-80
2022/05/09 13:48:52;;;;;;;;;;;;;;;;;;5052647;28;19909;-81
2022/05/09 13:51:28;;;;;;;;;;;25.50;58.80;;;;;;5050088;28;19915;-80
2022/05/09 13:53:53;;;;;;;;;;;;;;;;;;5042724;28;19913;-81
2022/05/09 13:56:19;;;;;;;;;;;;;;;;;;5043074;28;20015;-80
2022/05/09 13:58:45;;;;;;;;;;;;;;;;;;5052409;28;20198;-81
2022/05/09 14:01:11;;;;;;;;;;;;;;;;;;5051462;28;19912;-81
2022/05/09 14:03:37;;;;;;;;;;;;;;;;;;5050873;28;19955;-81
2022/05/09 14:06:03;;;;;;;;;;;;;;;;;;5055027;28;20411;-81
2022/05/09 14:08:29;;;;;;;;;;;;;;;;;;5048559;28;19916;-81
2022/05/09 14:10:54;;;;;;;;;;;;;;;;;;5048072;28;19912;-80
2022/05/09 14:13:21;;;;;;;;;;;;;;;;;;5041562;28;19993;-80
2022/05/09 14:15:47;;;;;;;;;;;;;;;;;;5043364;28;19912;-82
2022/05/09 14:18:12;;;;;;;;;;;;;;;;;;5057470;28;19913;-81
2022/05/09 14:20:39;;;;;;;;;;;26.00;56.80;;;;;;5048817;28;19962;-82
2022/05/09 14:23:05;;;;;;;;;;;;;;;;;;5044430;28;19913;-79
2022/05/09 14:31:00;;;;;;;;;;;;;;;;;;5047091;28;21627;-80
2022/05/09 14:33:27;;;;;;;;;;;;;;;;;;5049439;28;19983;-80
2022/05/09 14:35:53;;;;;;;;;;;;;;;;;;5050344;28;19904;-81
2022/05/09 14:38:19;;;;;;;;;;;;;;;;;;5047659;28;19962;-80
2022/05/09 14:40:47;;;;;;;;;;;;;;;;;;5050147;28;19916;-81
2022/05/09 14:43:12;;;;;;;;;;;;;;;;;;5048611;28;20591;-80
2022/05/09 14:45:39;;;;;;;;;;;;;;;;;;5048312;28;19978;-80
2022/05/09 14:48:24;;;;;;;;;;;24.30;64.40;;;;;;5049207;28;19976;-80
2022/05/09 14:50:50;;;;;;;;;;;;;;;;;;5052120;28;19995;-82
2022/05/09 14:53:16;;;;;;;;;;;;;;;;;;5045932;28;20007;-83
2022/05/09 14:58:26;;;;;;;;;;;;;;;;;;5054278;28;19924;-81
2022/05/09 15:00:52;;;;;;;;;;;;;;;;;;5043911;28;19908;-82
2022/05/09 15:03:18;;;;;;;;;;;;;;;;;;5028805;28;20038;-83
2022/05/09 15:05:44;;;;;;;;;;;;;;;;;;5044343;28;19964;-82
2022/05/09 15:08:10;;;;;;;;;;;;;;;;;;5044951;28;19947;-83
2022/05/09 15:10:36;;;;;;;;;;;;;;;;;;5036164;28;19916;-82
2022/05/09 15:13:02;;;;;;;;;;;24.40;62.30;;;;;;5047750;28;20319;-83
2022/05/09 15:15:29;;;;;;;;;;;23.50;58.70;;;;;;5040376;28;19917;-82
2022/05/09 15:17:55;;;;;;;;;;;;;;;;;;5035976;28;20510;-82
2022/05/09 15:20:21;;;;;;;;;;;;;;;;;;5044895;28;19915;-82
2022/05/09 15:22:48;;;;;;;;;;;;;;;;;;5040819;28;19917;-82
2022/05/09 15:25:17;;;;;;;;;;;;;;;;;;5040017;28;19917;-83
2022/05/09 15:27:43;;;;;;;;;;;;;;;;;;5024852;28;20175;-82
2022/05/09 15:30:09;;;;;;;;;;;;;;;;;;5034435;28;19991;-83
2022/05/09 15:32:35;;;;;;;;;;;;;;;;;;5033421;28;19924;-83